Time;durP1;ratioP1;P1;durP2;ratioP2;P2;SDS_P1;SDS_P2;PMS_P1;PMS_P2;Temp;Humidity;BMP_temperature;BMP_pressure;BME280_temperature;BME280_humidity;BME280_pressure;Samples;Min_cycle;Max_cycle;Signal;HPM_P1;HPM_P2
2021/04/17 00:01:52;;;;;;;19.40;17.43;;;;;;;3.22;88.96;99194.01;113306;1203;64314;-76
2021/04/17 00:04:20;;;;;;;18.80;16.90;;;;;;;3.19;89.04;99182.73;113127;1202;64506;-76
2021/04/17 00:06:47;;;;;;;16.23;14.53;;;;;;;3.18;89.02;99191.52;113152;1202;64502;-76
2021/04/17 00:09:19;;;;;;;15.73;14.13;;;;;;;3.19;89.03;99183.59;113165;1203;64447;-76
2021/04/17 00:11:47;;;;;;;18.65;16.80;;;;;;;3.18;89.10;99195.02;113154;1203;64439;-76
2021/04/17 00:14:21;;;;;;;19.55;17.65;;;;;;;3.16;89.21;99191.59;113393;1202;64336;-76
2021/04/17 00:16:48;;;;;;;16.37;14.67;;;;;;;3.16;89.09;99194.23;113113;1203;64375;-76
2021/04/17 00:19:15;;;;;;;14.05;12.65;;;;;;;3.16;88.97;99191.59;113350;1203;64880;-78
2021/04/17 00:21:41;;;;;;;14.30;12.80;;;;;;;3.17;89.06;99187.19;113365;1203;64455;-76
2021/04/17 00:24:08;;;;;;;14.00;12.60;;;;;;;3.17;89.06;99181.91;113227;1203;64416;-76
2021/04/17 00:26:35;;;;;;;13.53;12.13;;;;;;;3.16;89.10;99181.06;113177;1202;64394;-76
2021/04/17 00:29:03;;;;;;;16.10;14.40;;;;;;;3.18;89.17;99178.36;113108;1203;64372;-76
2021/04/17 00:31:31;;;;;;;19.00;15.43;;;;;;;3.17;89.10;99176.65;113091;1202;64461;-76
2021/04/17 00:33:58;;;;;;;18.45;16.60;;;;;;;3.15;89.18;99178.47;113112;1202;64464;-76
2021/04/17 00:36:24;;;;;;;17.10;14.90;;;;;;;3.14;89.09;99177.61;113131;1203;64409;-76
2021/04/17 00:38:51;;;;;;;18.40;16.00;;;;;;;3.12;89.11;99187.33;113093;1202;64324;-76
2021/04/17 00:41:18;;;;;;;18.40;16.50;;;;;;;3.12;89.08;99182.06;113117;1202;64315;-76
2021/04/17 00:43:44;;;;;;;23.90;19.20;;;;;;;3.12;89.18;99181.20;113092;1203;64414;-76
2021/04/17 00:46:12;;;;;;;18.27;16.47;;;;;;;3.11;89.19;99187.36;113101;1203;64375;-76
2021/04/17 00:48:43;;;;;;;18.50;16.50;;;;;;;3.10;89.26;99186.52;113136;1201;64394;-76
2021/04/17 00:51:12;;;;;;;18.30;16.30;;;;;;;3.08;89.36;99189.22;113149;1203;64336;-76
2021/04/17 00:53:39;;;;;;;15.70;14.05;;;;;;;3.08;89.40;99186.58;113250;1203;64397;-77
2021/04/17 00:56:08;;;;;;;18.27;15.87;;;;;;;3.08;89.33;99186.58;113160;1202;64506;-77
2021/04/17 00:58:36;;;;;;;18.07;16.17;;;;;;;3.10;89.22;99191.78;113214;1203;64347;-77
2021/04/17 01:01:06;;;;;;;18.05;15.70;;;;;;;3.08;89.26;99186.58;113265;1203;64426;-76
2021/04/17 01:04:01;;;;;;;17.30;14.87;;;;;;;3.09;89.33;99184.80;113371;1203;64323;-79
2021/04/17 01:06:49;;;;;;;19.05;17.00;;;;;;;3.11;89.31;99187.36;113442;1202;64417;-77
2021/04/17 01:09:41;;;;;;;19.70;17.40;;;;;;;3.13;89.42;99188.19;113354;1203;64361;-77
2021/04/17 01:12:11;;;;;;;20.30;16.90;;;;;;;3.13;89.39;99182.92;113394;1203;64366;-77
2021/04/17 01:14:41;;;;;;;23.97;21.17;;;;;;;3.14;89.30;99190.78;113392;1202;64362;-76
2021/04/17 01:17:08;;;;;;;21.60;19.00;;;;;;;3.13;89.25;99194.30;113373;1203;64263;-78
2021/04/17 01:19:40;;;;;;;21.30;18.95;;;;;;;3.11;89.15;99196.16;113327;1202;64528;-76
2021/04/17 01:22:10;;;;;;;21.80;19.15;;;;;;;3.10;89.38;99189.14;113162;1203;64423;-75
2021/04/17 01:24:45;;;;;;;20.35;17.90;;;;;;;3.11;89.30;99195.27;113158;1203;64381;-75
2021/04/17 01:27:13;;;;;;;20.40;18.30;;;;;;;3.08;89.15;99183.95;113131;1203;64391;-75
2021/04/17 01:29:42;;;;;;;20.43;18.20;;;;;;;3.12;89.30;99187.33;113114;1203;64337;-75
2021/04/17 01:32:13;;;;;;;20.83;17.77;;;;;;;3.13;89.42;99189.04;113074;1202;64413;-75
2021/04/17 01:34:41;;;;;;;21.57;18.07;;;;;;;3.15;89.33;99181.95;113095;1203;64554;-75
2021/04/17 01:37:10;;;;;;;19.57;16.90;;;;;;;3.15;89.09;99187.22;113159;1203;64445;-75
2021/04/17 01:39:39;;;;;;;24.63;19.17;;;;;;;3.14;89.35;99189.92;113100;1202;64702;-75
2021/04/17 01:42:08;;;;;;;24.03;17.90;;;;;;;3.15;89.36;99186.36;113129;1203;64490;-75
2021/04/17 01:44:40;;;;;;;26.70;21.03;;;;;;;3.17;89.21;99189.81;113265;1203;64362;-75
2021/04/17 01:47:14;;;;;;;26.00;23.10;;;;;;;3.17;89.39;99192.45;113381;1203;64486;-75
2021/04/17 01:49:49;;;;;;;25.20;21.10;;;;;;;3.16;89.29;99188.96;113382;1203;64401;-75
2021/04/17 01:52:20;;;;;;;26.95;22.85;;;;;;;3.12;89.13;99189.96;113237;1203;64401;-75
2021/04/17 01:54:52;;;;;;;24.65;21.30;;;;;;;3.11;89.26;99193.52;113141;1202;64435;-75
2021/04/17 01:57:24;;;;;;;23.80;21.20;;;;;;;3.08;89.21;99191.84;113296;1203;64397;-75
2021/04/17 01:59:51;;;;;;;23.13;20.70;;;;;;;3.10;89.36;99188.30;113362;1203;64417;-75
2021/04/17 02:02:18;;;;;;;23.50;20.80;;;;;;;3.10;89.38;99196.19;113389;1203;64529;-76
2021/04/17 02:04:45;;;;;;;20.80;18.10;;;;;;;3.12;89.38;99194.38;113306;1202;64333;-76
2021/04/17 02:07:13;;;;;;;22.60;20.20;;;;;;;3.13;89.41;99198.72;113218;1202;64343;-76
2021/04/17 02:09:40;;;;;;;24.00;20.10;;;;;;;3.16;89.27;99191.59;113166;1203;64484;-75
2021/04/17 02:12:08;;;;;;;24.60;21.10;;;;;;;3.17;89.39;99190.67;113240;1203;64462;-76
2021/04/17 02:14:34;;;;;;;25.40;21.60;;;;;;;3.19;89.19;99190.63;113200;1203;64614;-76
2021/04/17 02:17:13;;;;;;;26.33;21.37;;;;;;;3.14;89.20;99187.30;113116;1203;64477;-76
2021/04/17 02:19:57;;;;;;;30.70;23.35;;;;;;;3.12;89.15;99189.11;113062;1203;64337;-76
2021/04/17 02:22:24;;;;;;;30.10;24.80;;;;;;;3.10;89.29;99189.14;113177;1202;64397;-76
2021/04/17 02:24:52;;;;;;;30.00;26.13;;;;;;;3.08;89.07;99196.23;113185;1203;64525;-76
2021/04/17 02:27:19;;;;;;;37.33;27.83;;;;;;;3.07;89.29;99192.73;113175;1203;64544;-76
2021/04/17 02:29:56;;;;;;;31.10;27.60;;;;;;;3.06;89.04;99183.13;113314;1203;64365;-77
2021/04/17 02:32:24;;;;;;;32.60;27.90;;;;;;;3.06;89.16;99188.40;113133;1202;64343;-76
2021/04/17 02:34:51;;;;;;;29.03;25.10;;;;;;;3.09;89.34;99190.07;113128;1202;64505;-76
2021/04/17 02:37:19;;;;;;;29.65;24.40;;;;;;;3.10;89.38;99186.52;113317;1203;64318;-76
2021/04/17 02:39:46;;;;;;;24.50;21.80;;;;;;;3.11;89.29;99182.98;113286;1203;64413;-75
2021/04/17 02:42:14;;;;;;;26.60;22.90;;;;;;;3.10;89.15;99183.02;113292;1203;64423;-75
2021/04/17 02:44:41;;;;;;;25.60;22.10;;;;;;;3.10;89.35;99181.25;113219;1203;64346;-75
2021/04/17 02:47:08;;;;;;;23.75;21.20;;;;;;;3.12;89.31;99181.20;113380;1202;64451;-76
2021/04/17 02:49:35;;;;;;;24.57;21.03;;;;;;;3.12;89.49;99175.94;113351;1203;65001;-76
2021/04/17 02:52:02;;;;;;;22.10;18.90;;;;;;;3.11;89.28;99179.47;113335;1203;64378;-76
2021/04/17 02:54:28;;;;;;;26.63;22.03;;;;;;;3.09;89.42;99179.53;113103;1202;64375;-76
2021/04/17 02:56:55;;;;;;;25.60;22.73;;;;;;;3.08;89.32;99177.80;113090;1203;64349;-76
2021/04/17 02:59:22;;;;;;;28.10;23.80;;;;;;;3.05;89.31;99178.79;113070;1202;64375;-75
2021/04/17 03:01:48;;;;;;;28.10;23.47;;;;;;;3.03;89.34;99182.39;113160;1203;64401;-75
2021/04/17 03:04:15;;;;;;;24.73;21.40;;;;;;;3.01;89.13;99176.30;113390;1203;64487;-75
2021/04/17 03:06:42;;;;;;;23.90;20.10;;;;;;;3.01;89.14;99179.79;113364;1202;64414;-77
2021/04/17 03:09:08;;;;;;;24.40;21.70;;;;;;;3.03;89.43;99174.48;113360;1203;64397;-75
2021/04/17 03:11:35;;;;;;;26.80;22.15;;;;;;;3.03;89.57;99177.98;113217;1203;64340;-75
2021/04/17 03:14:02;;;;;;;25.73;21.00;;;;;;;3.08;89.36;99177.80;113284;1203;64633;-76
2021/04/17 03:16:29;;;;;;;21.80;19.40;;;;;;;3.12;89.64;99175.94;113150;1203;64458;-75
2021/04/17 03:18:55;;;;;;;25.95;21.75;;;;;;;3.12;89.26;99181.20;113102;1203;64384;-75
2021/04/17 03:21:22;;;;;;;26.30;21.80;;;;;;;3.13;89.43;99186.41;113171;1203;64494;-75
2021/04/17 03:23:48;;;;;;;27.75;22.50;;;;;;;3.14;89.25;99179.39;113170;1203;64388;-75
2021/04/17 03:26:16;;;;;;;27.87;23.60;;;;;;;3.13;89.40;99188.19;113186;1202;64493;-76
2021/04/17 03:28:42;;;;;;;32.20;26.47;;;;;;;3.11;89.13;99185.62;113180;1202;64793;-75
2021/04/17 03:31:09;;;;;;;32.75;26.10;;;;;;;3.08;89.21;99183.95;113151;1203;64404;-75
2021/04/17 03:33:36;;;;;;;31.15;24.65;;;;;;;3.08;89.11;99190.96;113301;1203;65947;-75
2021/04/17 03:36:02;;;;;;;28.60;24.43;;;;;;;3.05;89.04;99191.95;113206;1203;65487;-76
2021/04/17 03:38:29;;;;;;;32.60;24.70;;;;;;;3.05;89.25;99186.69;113099;1202;64407;-76
2021/04/17 03:40:56;;;;;;;27.80;24.60;;;;;;;3.06;89.42;99200.70;113116;1202;64497;-76
2021/04/17 03:43:22;;;;;;;32.47;25.83;;;;;;;3.03;89.28;99193.77;113116;1203;64417;-77
2021/04/17 03:45:49;;;;;;;32.93;26.63;;;;;;;3.03;89.16;99192.91;113133;1203;64404;-74
2021/04/17 03:48:15;;;;;;;29.90;26.15;;;;;;;3.02;89.26;99192.03;113243;1203;64388;-76
2021/04/17 03:50:42;;;;;;;31.40;25.60;;;;;;;3.03;89.40;99191.14;113372;1203;64509;-76
2021/04/17 03:53:08;;;;;;;28.30;22.40;;;;;;;3.04;89.36;99187.58;113404;1203;64368;-79
2021/04/17 03:55:35;;;;;;;27.20;23.00;;;;;;;3.06;89.42;99188.40;113281;1203;64427;-76
2021/04/17 03:58:02;;;;;;;25.95;21.35;;;;;;;3.10;89.46;99188.30;113396;1202;64512;-76
2021/04/17 04:00:28;;;;;;;26.73;23.83;;;;;;;3.11;89.29;99190.89;113275;1203;64346;-77
2021/04/17 04:02:56;;;;;;;25.97;21.87;;;;;;;3.10;89.35;99190.92;113333;1203;64445;-76
2021/04/17 04:05:23;;;;;;;23.13;20.37;;;;;;;3.07;89.29;99189.25;113300;1203;64365;-80
2021/04/17 04:07:49;;;;;;;22.50;19.90;;;;;;;3.06;89.21;99195.45;113099;1202;64414;-76
2021/04/17 04:10:16;;;;;;;22.20;18.90;;;;;;;3.10;89.21;99201.45;113111;1203;64470;-76
2021/04/17 04:12:44;;;;;;;20.65;16.45;;;;;;;3.08;89.04;99199.75;113128;1203;64907;-76
2021/04/17 04:15:13;;;;;;;17.90;15.75;;;;;;;3.08;89.13;99202.38;113116;1203;64396;-75
2021/04/17 04:17:41;;;;;;;17.25;15.50;;;;;;;3.09;89.09;99200.60;113179;1203;64362;-75
2021/04/17 04:20:09;;;;;;;16.50;14.80;;;;;;;3.12;89.05;99203.13;113132;1203;64362;-75
2021/04/17 04:22:36;;;;;;;17.27;15.60;;;;;;;3.10;89.12;99204.09;113202;1203;64455;-76
2021/04/17 04:25:05;;;;;;;19.35;16.70;;;;;;;3.08;88.91;99205.02;113039;1202;64432;-76
2021/04/17 04:27:31;;;;;;;19.50;17.40;;;;;;;3.10;89.03;99204.09;113094;1203;64410;-75
2021/04/17 04:29:58;;;;;;;18.60;16.60;;;;;;;3.11;89.04;99205.80;113105;1203;64400;-76
2021/04/17 04:32:24;;;;;;;18.35;15.85;;;;;;;3.08;89.12;99210.28;113134;1203;64382;-75
2021/04/17 04:34:51;;;;;;;19.80;17.70;;;;;;;3.08;89.20;99205.02;113125;1203;64369;-76
2021/04/17 04:37:18;;;;;;;20.90;17.30;;;;;;;3.10;89.33;99207.58;113222;1202;64395;-76
2021/04/17 04:39:44;;;;;;;18.73;16.77;;;;;;;3.12;89.08;99211.03;113385;1202;64484;-76
2021/04/17 04:42:11;;;;;;;16.90;15.10;;;;;;;3.12;88.99;99207.54;113367;1203;64474;-75
2021/04/17 04:44:38;;;;;;;18.00;16.10;;;;;;;3.12;89.04;99202.27;113395;1203;64401;-75
2021/04/17 04:47:04;;;;;;;17.30;15.40;;;;;;;3.12;89.29;99210.17;113355;1202;64381;-76
2021/04/17 04:49:31;;;;;;;18.25;16.30;;;;;;;3.14;89.18;99211.84;113390;1203;64397;-76
2021/04/17 04:51:58;;;;;;;18.55;16.65;;;;;;;3.19;89.41;99209.92;113329;1203;64519;-76
2021/04/17 04:54:24;;;;;;;20.73;17.67;;;;;;;3.22;89.30;99203.69;113400;1203;64381;-76
2021/04/17 04:56:51;;;;;;;21.80;18.85;;;;;;;3.24;89.31;99201.88;113360;1203;64352;-76
2021/04/17 04:59:18;;;;;;;22.10;17.13;;;;;;;3.26;89.17;99210.56;113369;1203;64494;-76
2021/04/17 05:01:45;;;;;;;20.93;18.50;;;;;;;3.26;89.04;99211.41;113368;1202;64388;-76
2021/04/17 05:04:11;;;;;;;20.95;18.25;;;;;;;3.24;88.99;99207.14;113359;1203;64478;-76
2021/04/17 05:06:38;;;;;;;21.60;19.17;;;;;;;3.25;89.13;99199.17;113208;1203;65957;-76
2021/04/17 05:09:06;;;;;;;22.67;19.77;;;;;;;3.27;88.99;99199.98;113363;1203;64368;-76
2021/04/17 05:11:33;;;;;;;25.85;22.05;;;;;;;3.29;89.06;99197.28;113116;1202;64445;-76
2021/04/17 05:14:00;;;;;;;21.20;18.40;;;;;;;3.36;88.99;99201.44;113121;1203;64451;-77
2021/04/17 05:16:27;;;;;;;20.15;18.10;;;;;;;3.41;88.96;99201.28;113094;1202;64497;-75
2021/04/17 05:18:54;;;;;;;19.45;17.35;;;;;;;3.41;88.74;99203.92;113157;1203;64414;-75
2021/04/17 05:21:20;;;;;;;22.30;19.17;;;;;;;3.42;88.82;99208.27;113409;1203;64349;-77
2021/04/17 05:23:47;;;;;;;22.65;19.90;;;;;;;3.45;88.83;99201.13;113303;1203;64371;-76
2021/04/17 05:26:14;;;;;;;23.40;19.10;;;;;;;3.41;88.63;99203.92;113307;1202;64413;-77
2021/04/17 05:28:41;;;;;;;22.90;20.35;;;;;;;3.39;88.61;99203.95;113188;1203;64327;-76
2021/04/17 05:31:07;;;;;;;23.70;20.97;;;;;;;3.38;88.75;99209.30;113077;1202;64439;-76
2021/04/17 05:33:34;;;;;;;26.00;21.40;;;;;;;3.40;88.79;99212.75;113132;1203;64781;-76
2021/04/17 05:36:00;;;;;;;24.50;19.85;;;;;;;3.46;88.80;99215.16;113154;1203;64372;-75
2021/04/17 05:38:27;;;;;;;20.85;18.65;;;;;;;3.46;88.55;99212.53;113066;1202;64497;-76
2021/04/17 05:40:54;;;;;;;26.40;23.60;;;;;;;3.52;88.70;99207.03;113109;1203;64503;-76
2021/04/17 05:43:20;;;;;;;23.53;21.03;;;;;;;3.57;88.85;99209.52;113112;1202;64436;-76
2021/04/17 05:45:47;;;;;;;22.17;18.73;;;;;;;3.62;88.70;99205.80;113107;1203;64359;-76
2021/04/17 05:48:13;;;;;;;22.60;20.30;;;;;;;3.65;88.75;99213.59;113357;1203;64471;-76
2021/04/17 05:50:40;;;;;;;23.45;20.95;;;;;;;3.70;88.59;99216.08;113231;1203;64388;-75
2021/04/17 05:53:07;;;;;;;24.50;21.25;;;;;;;3.78;88.67;99221.08;113278;1203;64637;-75
2021/04/17 05:55:33;;;;;;;24.00;21.40;;;;;;;3.78;88.20;99216.66;113307;1203;64499;-75
2021/04/17 05:58:00;;;;;;;25.60;21.60;;;;;;;3.76;88.38;99209.72;113379;1202;64419;-76
2021/04/17 06:00:27;;;;;;;24.60;21.07;;;;;;;3.74;88.01;99215.06;113655;1202;64366;-75
2021/04/17 06:02:57;;;;;;;24.30;21.70;;;;;;;3.73;88.05;99215.96;113630;1203;64435;-75
2021/04/17 06:05:24;;;;;;;25.65;22.90;;;;;;;3.71;88.09;99212.51;113656;1202;64439;-75
2021/04/17 06:07:51;;;;;;;24.10;20.30;;;;;;;3.68;88.11;99216.11;113594;1203;64500;-75
2021/04/17 06:10:17;;;;;;;27.20;23.73;;;;;;;3.72;88.23;99211.61;113366;1203;64419;-76
2021/04/17 06:12:44;;;;;;;24.35;21.75;;;;;;;3.72;87.85;99208.98;113129;1203;64813;-76
2021/04/17 06:15:11;;;;;;;23.55;20.50;;;;;;;3.73;87.99;99208.91;113142;1203;64429;-76
2021/04/17 06:17:38;;;;;;;25.53;21.83;;;;;;;3.73;87.86;99210.69;113118;1202;64461;-76
2021/04/17 06:20:05;;;;;;;25.85;23.10;;;;;;;3.73;87.89;99206.27;113134;1203;64356;-76
2021/04/17 06:22:32;;;;;;;27.10;22.40;;;;;;;3.77;88.08;99203.55;113156;1203;64481;-77
2021/04/17 06:24:59;;;;;;;24.75;21.35;;;;;;;3.81;87.84;99199.88;113112;1203;64378;-76
2021/04/17 06:27:26;;;;;;;25.60;22.50;;;;;;;3.85;87.73;99212.89;113179;1203;64388;-75
2021/04/17 06:29:52;;;;;;;27.57;24.47;;;;;;;3.88;87.71;99204.88;113092;1203;64477;-76
2021/04/17 06:32:19;;;;;;;29.60;25.90;;;;;;;3.92;87.80;99208.24;113139;1203;64320;-76
2021/04/17 06:34:45;;;;;;;26.10;23.27;;;;;;;3.94;87.53;99209.05;113255;1202;64400;-77
2021/04/17 06:37:12;;;;;;;24.43;21.83;;;;;;;3.94;87.41;99207.27;113351;1202;64385;-79
2021/04/17 06:39:38;;;;;;;20.95;18.50;;;;;;;3.96;87.26;99204.59;113409;1203;64429;-78
2021/04/17 06:42:12;;;;;;;20.17;18.07;;;;;;;3.95;87.35;99214.29;113336;1203;64295;-78
2021/04/17 06:44:45;;;;;;;22.13;19.73;;;;;;;3.98;87.54;99209.80;113392;1203;64417;-79
2021/04/17 06:47:15;;;;;;;21.50;19.20;;;;;;;3.99;87.36;99212.38;113402;1202;64366;-77
2021/04/17 06:49:43;;;;;;;22.35;19.95;;;;;;;4.01;87.36;99205.28;113281;1203;64350;-76
2021/04/17 06:52:14;;;;;;;21.70;18.85;;;;;;;4.06;87.28;99210.40;113241;1201;64346;-76
2021/04/17 06:54:42;;;;;;;19.37;17.27;;;;;;;4.11;87.14;99198.76;113065;1203;64512;-76
2021/04/17 06:57:09;;;;;;;21.90;19.50;;;;;;;4.12;86.77;99212.80;113142;1203;65641;-76
2021/04/17 06:59:36;;;;;;;23.25;20.75;;;;;;;4.13;87.10;99210.12;113079;1203;64391;-76
2021/04/17 07:02:02;;;;;;;25.10;22.40;;;;;;;4.23;87.32;99205.33;113098;1203;64372;-76
2021/04/17 07:04:29;;;;;;;25.13;21.47;;;;;;;4.25;87.08;99208.78;113113;1202;64327;-76
2021/04/17 07:06:56;;;;;;;22.40;20.00;;;;;;;4.23;86.74;99210.61;113121;1203;64534;-76
2021/04/17 07:09:23;;;;;;;24.23;20.20;;;;;;;4.25;86.97;99221.12;113149;1203;64474;-76
2021/04/17 07:11:50;;;;;;;23.33;20.90;;;;;;;4.32;87.03;99210.28;113293;1203;64838;-76
2021/04/17 07:14:18;;;;;;;20.50;17.80;;;;;;;4.35;86.74;99218.08;113095;1202;64416;-76
2021/04/17 07:17:00;;;;;;;25.00;22.30;;;;;;;4.33;86.77;99211.98;113215;1202;64474;-76
2021/04/17 07:19:45;;;;;;;25.50;21.70;;;;;;;4.33;86.75;99209.34;113126;1203;64446;-76
2021/04/17 07:22:21;;;;;;;24.50;21.90;;;;;;;4.31;86.31;99220.88;113118;1203;64477;-76
2021/04/17 07:24:51;;;;;;;25.30;21.35;;;;;;;4.29;86.52;99226.23;113135;1203;64359;-77
2021/04/17 07:27:40;;;;;;;29.83;24.35;;;;;;;4.36;86.69;99219.78;113161;1203;64419;-76
2021/04/17 07:30:16;;;;;;;29.23;23.93;;;;;;;4.43;86.57;99219.57;113150;1203;64518;-75
2021/04/17 07:33:01;;;;;;;25.43;21.40;;;;;;;4.48;86.30;99225.53;113076;1203;64471;-76
2021/04/17 07:35:34;;;;;;;29.30;24.73;;;;;;;4.51;86.50;99220.98;113116;1202;64445;-76
2021/04/17 07:38:32;;;;;;;45.00;34.50;;;;;;;4.55;86.26;99224.35;113127;1203;64365;-76
2021/04/17 07:41:05;;;;;;;49.67;37.50;;;;;;;4.59;86.26;99226.82;113264;1203;64416;-75
2021/04/17 07:43:55;;;;;;;34.35;28.50;;;;;;;4.64;86.11;99223.16;113121;1203;64366;-76
2021/04/17 07:46:42;;;;;;;40.00;29.85;;;;;;;4.70;86.30;99225.55;113089;1203;64603;-76
2021/04/17 07:49:18;;;;;;;28.87;23.10;;;;;;;4.72;86.02;99224.56;113105;1203;64495;-76
2021/04/17 07:52:05;;;;;;;25.30;20.70;;;;;;;4.78;85.67;99223.46;113121;1203;64385;-75
2021/04/17 07:54:32;;;;;;;34.10;25.97;;;;;;;4.88;85.78;99229.25;113133;1203;64356;-76
2021/04/17 07:57:04;;;;;;;27.40;23.10;;;;;;;4.90;85.18;99225.63;113149;1202;64358;-77
2021/04/17 07:59:33;;;;;;;29.20;23.83;;;;;;;4.91;85.09;99237.04;113166;1202;64468;-76
2021/04/17 08:02:02;;;;;;;26.10;21.75;;;;;;;4.89;84.94;99229.16;113312;1203;64605;-76
2021/04/17 08:04:30;;;;;;;29.67;23.13;;;;;;;4.89;85.10;99228.31;113417;1203;64493;-76
2021/04/17 08:06:59;;;;;;;28.20;22.55;;;;;;;4.92;85.00;99230.83;113438;1203;64350;-76
2021/04/17 08:09:27;;;;;;;24.10;20.30;;;;;;;4.97;84.65;99236.78;113127;1203;64484;-76
2021/04/17 08:11:57;;;;;;;31.15;24.60;;;;;;;5.01;84.85;99235.75;113145;1203;64542;-76
2021/04/17 08:14:26;;;;;;;32.03;25.28;;;;;;;5.10;85.05;99230.08;113158;1203;64445;-76
2021/04/17 08:16:54;;;;;;;27.60;23.90;;;;;;;5.08;84.25;99229.27;113315;1203;64388;-76
2021/04/17 08:19:21;;;;;;;27.40;23.80;;;;;;;5.03;84.64;99234.77;113357;1203;64471;-78
2021/04/17 08:21:50;;;;;;;21.95;18.90;;;;;;;5.00;84.09;99240.19;113165;1203;64390;-76
2021/04/17 08:24:23;;;;;;;20.80;18.07;;;;;;;4.91;84.29;99237.04;113122;1203;64394;-76
2021/04/17 08:26:54;;;;;;;20.25;18.05;;;;;;;4.96;84.61;99241.21;113226;1203;64388;-75
2021/04/17 08:29:46;;;;;;;22.43;19.73;;;;;;;5.03;84.63;99233.92;113362;1203;64375;-76
2021/04/17 08:32:24;;;;;;;17.97;16.07;;;;;;;5.08;84.36;99236.34;113067;1202;64366;-76
2021/04/17 08:35:09;;;;;;;19.10;17.05;;;;;;;5.15;84.49;99238.68;113338;1203;64397;-76
2021/04/17 08:37:55;;;;;;;20.73;18.10;;;;;;;5.22;84.42;99237.52;113344;1203;64612;-76
2021/04/17 08:40:37;;;;;;;22.35;18.60;;;;;;;5.29;84.45;99240.74;113405;1203;64442;-76
2021/04/17 08:43:18;;;;;;;19.60;16.75;;;;;;;5.34;83.97;99245.84;113343;1203;64356;-76
2021/04/17 08:46:11;;;;;;;17.85;15.10;;;;;;;5.29;83.92;99240.74;113334;1203;64388;-77
2021/04/17 08:48:47;;;;;;;18.85;16.80;;;;;;;5.28;84.15;99239.89;113204;1203;64493;-76
2021/04/17 08:51:24;;;;;;;21.33;18.07;;;;;;;5.36;83.81;99238.72;113116;1202;64384;-76
2021/04/17 08:54:14;;;;;;;24.50;21.73;;;;;;;5.36;83.89;99244.01;113124;1202;64391;-76
2021/04/17 08:56:53;;;;;;;26.90;23.10;;;;;;;5.37;83.75;99243.95;113149;1203;64417;-76
2021/04/17 08:59:35;;;;;;;28.75;24.15;;;;;;;5.41;84.11;99244.67;113156;1203;64333;-76
2021/04/17 09:02:07;;;;;;;25.70;22.90;;;;;;;5.37;83.28;99246.60;113175;1202;64387;-76
2021/04/17 09:04:55;;;;;;;23.15;20.65;;;;;;;5.42;83.80;99246.38;113082;1203;64480;-76
2021/04/17 09:07:22;;;;;;;24.50;20.90;;;;;;;5.54;83.93;99248.52;113090;1202;64411;-76
2021/04/17 09:09:50;;;;;;;21.03;18.83;;;;;;;5.63;83.58;99244.62;113104;1202;64388;-76
2021/04/17 09:12:19;;;;;;;21.45;19.00;;;;;;;5.62;83.21;99243.77;113133;1203;64401;-76
2021/04/17 09:14:53;;;;;;;27.25;21.85;;;;;;;5.55;83.10;99234.36;113231;1201;64468;-75
2021/04/17 09:17:32;;;;;;;24.50;20.35;;;;;;;5.57;83.12;99244.89;113222;1203;64883;-76
2021/04/17 09:20:00;;;;;;;27.10;22.20;;;;;;;5.46;82.64;99245.34;113251;1202;65990;-76
2021/04/17 09:22:27;;;;;;;24.50;21.10;;;;;;;5.39;83.03;99242.09;113454;1203;64378;-77
2021/04/17 09:24:54;;;;;;;23.70;20.10;;;;;;;5.48;83.21;99247.00;113463;1202;64372;-77
2021/04/17 09:27:30;;;;;;;23.95;21.35;;;;;;;5.67;83.72;99246.22;113324;1202;64396;-78
2021/04/17 09:30:01;;;;;;;24.63;20.40;;;;;;;5.76;83.02;99245.80;113285;1203;64531;-76
2021/04/17 09:32:37;;;;;;;22.37;19.27;;;;;;;5.71;82.83;99242.50;113354;1203;64362;-76
2021/04/17 09:35:21;;;;;;;24.43;18.80;;;;;;;5.65;82.93;99242.77;113267;1203;64416;-77
2021/04/17 09:38:03;;;;;;;20.30;16.75;;;;;;;5.50;82.91;99242.52;113243;1202;64365;-75
2021/04/17 09:40:53;;;;;;;19.15;16.50;;;;;;;5.42;82.98;99241.95;113110;1202;64512;-75
2021/04/17 09:43:31;;;;;;;18.15;15.15;;;;;;;5.43;83.42;99245.48;113081;1202;64317;-75
2021/04/17 09:46:18;;;;;;;17.90;14.60;;;;;;;5.48;83.18;99240.86;113163;1202;64400;-78
2021/04/17 09:48:47;;;;;;;19.55;16.90;;;;;;;5.46;83.21;99243.55;113108;1202;64403;-77
2021/04/17 09:51:18;;;;;;;22.40;20.00;;;;;;;5.49;83.46;99231.99;113092;1203;64397;-75
2021/04/17 09:53:45;;;;;;;23.15;19.35;;;;;;;5.52;83.50;99236.30;113177;1202;64455;-75
2021/04/17 09:56:14;;;;;;;23.80;20.30;;;;;;;5.55;83.21;99238.80;113080;1203;64455;-75
2021/04/17 09:58:45;;;;;;;20.77;17.80;;;;;;;5.68;82.92;99226.77;113225;1203;64812;-76
2021/04/17 10:01:14;;;;;;;19.25;17.20;;;;;;;5.78;82.97;99236.03;113247;1202;64388;-75
2021/04/17 10:03:43;;;;;;;18.87;16.70;;;;;;;5.90;82.83;99235.50;113228;1203;64696;-76
2021/04/17 10:06:30;;;;;;;17.45;15.55;;;;;;;6.04;82.58;99231.42;113385;1203;64375;-76
2021/04/17 10:09:11;;;;;;;22.43;20.03;;;;;;;6.17;82.79;99229.94;113276;1202;64522;-76
2021/04/17 10:11:40;;;;;;;19.10;17.05;;;;;;;6.29;82.49;99229.39;113306;1203;64385;-78
2021/04/17 10:14:10;;;;;;;20.97;18.63;;;;;;;6.31;82.53;99227.52;113437;1203;64503;-78
2021/04/17 10:16:41;;;;;;;20.60;16.80;;;;;;;6.21;81.90;99234.15;113319;1203;64359;-77
2021/04/17 10:19:12;;;;;;;20.70;17.13;;;;;;;6.14;82.31;99235.38;113378;1203;64366;-76
2021/04/17 10:21:39;;;;;;;24.43;20.17;;;;;;;6.18;82.75;99228.14;113184;1202;64368;-78
2021/04/17 10:24:27;;;;;;;29.50;24.30;;;;;;;6.26;82.86;99232.16;113167;1203;64474;-76
2021/04/17 10:26:54;;;;;;;31.30;24.30;;;;;;;6.40;82.53;99228.02;113280;1203;64427;-76
2021/04/17 10:29:31;;;;;;;24.10;20.85;;;;;;;6.47;82.49;99227.66;113112;1203;64391;-76
2021/04/17 10:32:01;;;;;;;25.70;21.90;;;;;;;6.49;82.33;99223.16;113115;1202;64384;-76
2021/04/17 10:34:28;;;;;;;24.15;19.45;;;;;;;6.64;82.11;99223.39;113187;1203;64522;-77
2021/04/17 10:37:01;;;;;;;24.93;21.83;;;;;;;6.89;81.58;99215.97;113528;1202;64510;-84
2021/04/17 10:39:28;;;;;;;24.65;21.60;;;;;;;7.00;81.64;99210.14;113368;1203;64355;-85
2021/04/17 10:42:06;;;;;;;24.80;22.10;;;;;;;6.91;81.37;99219.41;113447;1202;64400;-91
2021/04/17 10:44:34;;;;;;;23.67;21.07;;;;;;;6.89;81.60;99229.21;113735;1203;64385;-90
2021/04/17 10:47:02;;;;;;;23.00;20.50;;;;;;;6.91;81.41;99222.05;113518;1203;64324;-88
2021/04/17 10:49:39;;;;;;;23.05;19.95;;;;;;;6.97;81.29;99221.75;113567;1202;64509;-87
2021/04/17 10:52:24;;;;;;;21.80;18.07;;;;;;;7.01;81.19;99218.03;113581;1202;64579;-88
2021/04/17 10:54:52;;;;;;;19.00;15.85;;;;;;;7.14;80.31;99222.74;113490;1202;64873;-91
2021/04/17 10:57:20;;;;;;;18.47;16.37;;;;;;;7.14;80.19;99218.30;113727;1203;64327;-91
2021/04/17 11:00:00;;;;;;;17.30;14.87;;;;;;;7.13;79.77;99219.20;113411;1202;64387;-86
2021/04/17 11:02:30;;;;;;;20.80;16.20;;;;;;;6.98;79.60;99212.89;113307;1203;64757;-89
2021/04/17 11:04:58;;;;;;;;;;;;;;;6.89;79.92;99223.06;113529;1210;64442;-88
2021/04/17 11:07:43;;;;;;;20.75;16.60;;;;;;;6.82;80.02;99214.57;113549;1203;64420;-79
2021/04/17 11:10:11;;;;;;;19.40;16.50;;;;;;;6.80;80.61;99213.77;113112;1203;64327;-79
2021/04/17 11:12:39;;;;;;;17.30;15.45;;;;;;;6.95;80.76;99215.69;113094;1203;64417;-78
2021/04/17 11:15:24;;;;;;;15.05;13.45;;;;;;;7.17;80.00;99215.48;113099;1202;64470;-78
2021/04/17 11:18:12;;;;;;;14.15;12.65;;;;;;;7.16;78.79;99211.13;113224;1203;64416;-78
2021/04/17 11:20:58;;;;;;;15.70;13.70;;;;;;;7.11;79.22;99217.56;113204;1203;64468;-79
2021/04/17 11:23:53;;;;;;;16.65;14.90;;;;;;;6.94;79.03;99213.10;113162;1202;64384;-79
2021/04/17 11:26:22;;;;;;;18.45;15.30;;;;;;;6.81;79.20;99216.33;113128;1203;64573;-79
2021/04/17 11:28:55;;;;;;;13.65;12.25;;;;;;;6.76;79.95;99222.78;113292;1203;64391;-79
2021/04/17 11:31:27;;;;;;;16.75;13.65;;;;;;;6.69;79.98;99214.30;113268;1203;64363;-79
2021/04/17 11:33:56;;;;;;;15.30;13.25;;;;;;;6.72;80.02;99218.59;113110;1203;64452;-79